createdAt,value
2019-01-04T00:00:37.326Z,13.70
2019-01-04T00:03:08.277Z,12.40
2019-01-04T00:05:39.590Z,14.73
2019-01-04T00:08:12.037Z,11.60
2019-01-04T00:10:44.934Z,10.90
2019-01-04T00:13:15.262Z,12.37
2019-01-04T00:15:46.818Z,13.77
2019-01-04T00:18:19.717Z,11.17
2019-01-04T00:20:49.673Z,12.70
2019-01-04T00:23:19.758Z,12.10
2019-01-04T00:25:49.650Z,10.53
2019-01-04T00:28:20.661Z,14.93
2019-01-04T00:30:54.038Z,13.23
2019-01-04T00:33:23.793Z,15.23
2019-01-04T00:35:54.830Z,12.53
2019-01-04T00:38:25.966Z,13.37
2019-01-04T00:40:59.537Z,12.73
2019-01-04T00:43:31.158Z,12.60
2019-01-04T00:46:02.940Z,12.23
2019-01-04T00:48:32.801Z,13.30
2019-01-04T00:51:03.825Z,23.63
2019-01-04T00:53:36.773Z,17.83
2019-01-04T00:56:22.113Z,15.50
2019-01-04T00:59:18.201Z,15.20
2019-01-04T01:01:53.948Z,16.80
2019-01-04T01:04:44.565Z,17.63
2019-01-04T01:07:27.861Z,18.93
2019-01-04T01:10:24.137Z,18.40
2019-01-04T01:13:24.626Z,16.03
2019-01-04T01:16:31.893Z,16.90
2019-01-04T01:19:07.949Z,18.40
2019-01-04T01:21:42.325Z,17.13
2019-01-04T01:24:51.678Z,18.67
2019-01-04T01:27:44.073Z,15.80
2019-01-04T01:30:19.761Z,16.30
2019-01-04T01:33:10.314Z,13.63
2019-01-04T01:35:59.331Z,18.80
2019-01-04T01:38:59.314Z,17.77
2019-01-04T01:41:32.933Z,17.10
2019-01-04T01:44:21.825Z,15.97
2019-01-04T01:46:56.292Z,16.47
2019-01-04T01:49:45.603Z,17.33
2019-01-04T01:52:25.554Z,16.17
2019-01-04T01:54:58.028Z,24.57
2019-01-04T01:57:29.179Z,18.17
2019-01-04T01:59:59.053Z,15.60
2019-01-04T02:02:28.842Z,16.13
2019-01-04T02:05:00.128Z,16.00
2019-01-04T02:07:34.373Z,12.27
2019-01-04T02:10:07.894Z,15.60
2019-01-04T02:12:37.761Z,15.40
2019-01-04T02:15:08.694Z,13.47
2019-01-04T02:17:39.818Z,18.27
2019-01-04T02:20:10.114Z,15.40
2019-01-04T02:22:42.287Z,16.27
2019-01-04T02:25:16.198Z,11.73
2019-01-04T02:27:46.479Z,12.20
2019-01-04T02:30:17.695Z,17.00
2019-01-04T02:32:48.630Z,15.90
2019-01-04T02:35:19.581Z,14.23
2019-01-04T02:37:49.552Z,15.63
2019-01-04T02:40:19.656Z,17.63
2019-01-04T02:42:52.042Z,12.67
2019-01-04T02:45:22.850Z,15.80
2019-01-04T02:47:53.900Z,17.97
2019-01-04T02:50:24.072Z,18.77
2019-01-04T02:52:53.868Z,16.03
2019-01-04T02:55:24.045Z,17.33
2019-01-04T02:57:55.283Z,16.90
2019-01-04T03:00:25.473Z,13.70
2019-01-04T03:02:56.639Z,18.97
2019-01-04T03:05:28.499Z,15.77
2019-01-04T03:07:59.934Z,18.23
2019-01-04T03:10:30.145Z,21.87
2019-01-04T03:13:02.157Z,21.27
2019-01-04T03:15:32.975Z,18.50
2019-01-04T03:18:03.690Z,16.10
2019-01-04T03:20:33.851Z,22.20
2019-01-04T03:23:04.910Z,19.23
2019-01-04T03:25:36.685Z,22.33
2019-01-04T03:28:06.844Z,19.17
2019-01-04T03:30:37.042Z,17.20
2019-01-04T03:33:08.579Z,19.47
2019-01-04T03:35:38.897Z,18.47
2019-01-04T03:38:12.934Z,16.80
2019-01-04T03:40:43.742Z,22.87
2019-01-04T03:43:15.899Z,18.00
2019-01-04T03:45:49.990Z,19.97
2019-01-04T03:48:20.326Z,22.63
2019-01-04T03:50:54.109Z,22.83
2019-01-04T03:53:24.266Z,25.30
2019-01-04T03:55:56.874Z,20.43
2019-01-04T03:58:27.071Z,17.10
2019-01-04T04:01:00.102Z,23.50
2019-01-04T04:03:29.867Z,19.80
2019-01-04T04:06:00.917Z,22.67
2019-01-04T04:08:31.188Z,15.27
2019-01-04T04:11:02.320Z,17.10
2019-01-04T04:13:36.519Z,20.87
2019-01-04T04:16:07.759Z,15.67
2019-01-04T04:18:38.047Z,18.77
2019-01-04T04:21:09.268Z,16.17
2019-01-04T04:23:40.722Z,14.50
2019-01-04T04:26:11.043Z,13.77
2019-01-04T04:28:42.938Z,16.77
2019-01-04T04:31:15.749Z,14.97
2019-01-04T04:33:47.457Z,17.73
2019-01-04T04:36:18.593Z,20.87
2019-01-04T04:38:49.669Z,15.17
2019-01-04T04:41:20.871Z,18.27
2019-01-04T04:43:53.295Z,15.97
2019-01-04T04:46:24.098Z,16.30
2019-01-04T04:48:54.180Z,15.33
2019-01-04T04:51:25.332Z,14.93
2019-01-04T04:53:56.413Z,16.20
2019-01-04T04:56:26.654Z,16.27
2019-01-04T04:58:58.425Z,17.90
2019-01-04T05:01:30.185Z,15.73
2019-01-04T05:04:00.300Z,15.13
2019-01-04T05:06:33.530Z,15.43
2019-01-04T05:09:05.769Z,26.83
2019-01-04T05:11:36.193Z,17.37
2019-01-04T05:14:08.825Z,16.77
2019-01-04T05:16:39.094Z,19.43
2019-01-04T05:19:09.488Z,24.33
2019-01-04T05:21:43.050Z,21.63
2019-01-04T05:24:14.303Z,21.53
2019-01-04T05:26:45.137Z,17.53
2019-01-04T05:29:15.285Z,21.53
2019-01-04T05:31:45.934Z,21.30
2019-01-04T05:34:19.175Z,18.43
2019-01-04T05:36:49.753Z,23.33
2019-01-04T05:39:22.029Z,21.27
2019-01-04T05:41:52.234Z,19.27
2019-01-04T05:44:23.503Z,18.90
2019-01-04T05:46:54.233Z,15.67
2019-01-04T05:49:25.321Z,31.80
2019-01-04T05:51:57.060Z,18.73
2019-01-04T05:54:30.698Z,16.53
2019-01-04T05:57:01.677Z,16.97
2019-01-04T05:59:33.013Z,17.70
2019-01-04T06:02:03.877Z,15.93
2019-01-04T06:04:33.987Z,17.53
2019-01-04T06:07:05.197Z,17.67
2019-01-04T06:09:35.070Z,16.00
2019-01-04T06:12:06.213Z,16.13
2019-01-04T06:14:38.257Z,17.87
2019-01-04T06:17:08.168Z,18.60
2019-01-04T06:19:41.370Z,18.50
2019-01-04T06:22:10.782Z,22.87
2019-01-04T06:24:42.594Z,22.37
2019-01-04T06:27:12.810Z,18.60
2019-01-04T06:29:44.706Z,19.97
2019-01-04T06:32:16.045Z,20.40
2019-01-04T06:34:45.803Z,14.50
2019-01-04T06:37:18.739Z,18.67
2019-01-04T06:39:49.535Z,25.67
2019-01-04T06:42:20.655Z,30.53
2019-01-04T06:44:51.515Z,27.57
2019-01-04T06:47:21.673Z,34.13
2019-01-04T06:49:52.857Z,25.93
2019-01-04T06:52:23.550Z,22.77
2019-01-04T06:55:12.232Z,21.40
2019-01-04T06:57:44.013Z,24.37
2019-01-04T07:00:14.702Z,20.93
2019-01-04T07:02:45.365Z,22.50
2019-01-04T07:05:16.385Z,26.30
2019-01-04T07:07:46.762Z,21.50
2019-01-04T07:10:19.287Z,26.63
2019-01-04T07:12:49.588Z,26.20
2019-01-04T07:15:20.727Z,24.70
2019-01-04T07:17:51.050Z,30.30
2019-01-04T07:20:21.202Z,23.67
2019-01-04T07:22:53.213Z,27.20
2019-01-04T07:25:24.297Z,31.33
2019-01-04T07:27:55.320Z,22.97
2019-01-04T07:30:27.349Z,22.07
2019-01-04T07:32:59.837Z,20.90
2019-01-04T07:35:30.864Z,32.97
2019-01-04T07:40:52.118Z,31.80
2019-01-04T07:43:22.314Z,41.30
2019-01-04T07:45:52.606Z,43.73
2019-01-04T07:48:26.389Z,48.53
2019-01-04T07:50:58.129Z,45.03
2019-01-04T07:53:28.038Z,35.30
2019-01-04T07:55:58.309Z,48.47
2019-01-04T07:58:29.365Z,47.97
2019-01-04T08:00:59.965Z,40.43
2019-01-04T08:03:30.817Z,40.30
2019-01-04T08:06:02.048Z,38.63
2019-01-04T08:08:33.594Z,34.20
2019-01-04T08:11:04.085Z,32.70
2019-01-04T08:13:34.981Z,29.77
2019-01-04T08:16:05.065Z,31.33
2019-01-04T08:18:36.375Z,35.57
2019-01-04T08:21:09.709Z,37.60
2019-01-04T08:23:39.988Z,34.73
2019-01-04T08:26:10.818Z,31.60
2019-01-04T08:28:42.303Z,29.47
2019-01-04T08:31:12.989Z,28.57
2019-01-04T08:33:43.882Z,31.10
2019-01-04T08:36:17.062Z,25.60
2019-01-04T08:38:47.790Z,24.83
2019-01-04T08:41:17.525Z,28.87
2019-01-04T08:43:49.481Z,30.70
2019-01-04T08:46:22.425Z,27.67
2019-01-04T08:48:53.635Z,27.93
2019-01-04T08:51:24.452Z,26.03
2019-01-04T08:53:59.101Z,25.83
2019-01-04T08:56:34.389Z,25.37
2019-01-04T08:59:05.531Z,25.17
2019-01-04T09:01:37.612Z,24.67
2019-01-04T09:04:09.683Z,21.23
2019-01-04T09:06:40.838Z,23.07
2019-01-04T09:09:11.041Z,23.97
2019-01-04T09:11:41.822Z,25.33
2019-01-04T09:14:22.359Z,24.80
2019-01-04T09:16:53.369Z,23.03
2019-01-04T09:19:24.246Z,26.63
2019-01-04T09:21:55.261Z,27.47
2019-01-04T09:24:27.826Z,24.17
2019-01-04T09:26:58.033Z,27.70
2019-01-04T09:29:31.398Z,36.47
2019-01-04T09:32:03.816Z,31.50
2019-01-04T09:34:34.695Z,28.00
2019-01-04T09:37:05.821Z,31.73
2019-01-04T09:39:37.400Z,29.87
2019-01-04T09:42:08.210Z,30.40
2019-01-04T09:44:39.300Z,30.83
2019-01-04T09:47:10.469Z,29.17
2019-01-04T09:49:42.176Z,25.87
2019-01-04T09:52:12.333Z,28.60
2019-01-04T09:54:42.526Z,28.63
2019-01-04T09:57:13.293Z,26.90
2019-01-04T09:59:44.484Z,30.47
2019-01-04T10:02:16.591Z,29.13
2019-01-04T10:04:50.073Z,24.40
2019-01-04T10:07:21.056Z,25.93
2019-01-04T10:09:51.142Z,27.30
2019-01-04T10:12:22.349Z,24.13
2019-01-04T10:14:55.781Z,22.93
2019-01-04T10:17:26.859Z,24.60
2019-01-04T10:19:57.032Z,22.13
2019-01-04T10:22:28.083Z,23.87
2019-01-04T10:25:00.845Z,18.57
2019-01-04T10:27:33.806Z,20.07
2019-01-04T10:30:05.146Z,17.10
2019-01-04T10:32:37.228Z,17.53
2019-01-04T10:35:10.695Z,21.13
2019-01-04T10:37:41.078Z,24.57
2019-01-04T10:40:11.401Z,23.20
2019-01-04T10:42:42.501Z,22.40
2019-01-04T10:45:15.429Z,16.70
2019-01-04T10:47:46.625Z,24.30
2019-01-04T10:50:17.054Z,22.53
2019-01-04T10:52:47.202Z,22.53
2019-01-04T10:55:18.099Z,21.40
2019-01-04T10:57:48.258Z,25.37
2019-01-04T11:00:20.317Z,23.87
2019-01-04T11:02:51.562Z,24.03
2019-01-04T11:05:22.329Z,22.90
2019-01-04T11:07:54.201Z,24.47
2019-01-04T11:10:25.392Z,22.87
2019-01-04T11:12:56.865Z,22.97
2019-01-04T11:15:27.677Z,19.37
2019-01-04T11:17:58.705Z,18.67
2019-01-04T11:20:44.957Z,21.20
2019-01-04T11:23:36.597Z,21.63
2019-01-04T11:26:09.633Z,24.10
2019-01-04T11:28:40.937Z,20.87
2019-01-04T11:31:21.858Z,22.17
2019-01-04T11:33:55.153Z,21.40
2019-01-04T11:36:25.812Z,20.90
2019-01-04T11:39:13.735Z,22.90
2019-01-04T11:42:05.109Z,21.60
2019-01-04T11:44:45.989Z,21.53
2019-01-04T11:47:20.382Z,22.53
2019-01-04T11:50:00.782Z,19.83
2019-01-04T11:52:32.013Z,20.07
2019-01-04T11:55:02.689Z,19.70
2019-01-04T11:57:33.451Z,24.60
2019-01-04T12:00:03.967Z,21.27
2019-01-04T12:02:35.086Z,20.03
2019-01-04T12:05:08.430Z,18.70
2019-01-04T12:07:41.061Z,17.40
2019-01-04T12:10:11.677Z,19.83
2019-01-04T12:12:41.418Z,21.70
2019-01-04T12:15:11.622Z,22.80
2019-01-04T12:17:41.390Z,21.60
2019-01-04T12:20:12.442Z,25.50
2019-01-04T12:22:42.618Z,22.50
2019-01-04T12:25:13.478Z,23.70
2019-01-04T12:27:44.579Z,24.17
2019-01-04T12:30:15.421Z,23.87
2019-01-04T12:32:46.906Z,24.83
2019-01-04T12:35:16.749Z,25.37
2019-01-04T12:37:47.795Z,24.07
2019-01-04T12:40:18.598Z,24.17
2019-01-04T12:42:50.801Z,28.53
2019-01-04T12:45:21.571Z,30.70
2019-01-04T12:47:52.526Z,39.03
2019-01-04T12:50:25.349Z,33.80
2019-01-04T12:52:59.064Z,38.23
2019-01-04T12:55:29.837Z,37.90
2019-01-04T12:58:01.570Z,37.93
2019-01-04T13:00:33.873Z,44.07
2019-01-04T13:03:04.053Z,40.97
2019-01-04T13:05:34.781Z,44.33
2019-01-04T13:08:04.550Z,46.00
2019-01-04T13:10:35.752Z,43.83
2019-01-04T13:13:09.574Z,47.37
2019-01-04T13:15:39.537Z,45.30
2019-01-04T13:18:13.192Z,43.90
2019-01-04T13:20:44.397Z,46.40
2019-01-04T13:23:15.529Z,48.50
2019-01-04T13:25:45.842Z,50.23
2019-01-04T13:28:18.157Z,48.73
2019-01-04T13:30:49.363Z,46.77
2019-01-04T13:33:20.269Z,49.40
2019-01-04T13:35:51.026Z,57.87
2019-01-04T13:38:21.113Z,53.47
2019-01-04T13:40:52.234Z,55.80
2019-01-04T13:43:23.515Z,54.97
2019-01-04T13:45:53.689Z,57.90
2019-01-04T13:48:23.882Z,52.90
2019-01-04T13:50:56.715Z,43.17
2019-01-04T13:53:26.588Z,57.13
2019-01-04T13:55:59.303Z,59.60
2019-01-04T13:58:29.137Z,55.77
2019-01-04T14:01:00.109Z,52.07
2019-01-04T14:03:30.289Z,53.73
2019-01-04T14:06:02.912Z,50.90
2019-01-04T14:08:34.359Z,52.70
2019-01-04T14:11:05.565Z,50.43
2019-01-04T14:13:36.703Z,51.07
2019-01-04T14:16:07.124Z,48.23
2019-01-04T14:18:38.294Z,52.63
2019-01-04T14:21:09.591Z,47.07
2019-01-04T14:23:41.054Z,47.93
2019-01-04T14:26:12.173Z,50.70
2019-01-04T14:28:43.113Z,50.53
2019-01-04T14:31:15.649Z,47.97
2019-01-04T14:33:48.649Z,53.37
2019-01-04T14:36:18.936Z,37.10
2019-01-04T14:38:50.098Z,50.77
2019-01-04T14:41:23.413Z,48.57
2019-01-04T14:43:55.269Z,52.70
2019-01-04T14:46:25.880Z,46.60
2019-01-04T14:48:56.082Z,49.80
2019-01-04T14:51:30.278Z,56.13
2019-01-04T14:54:02.773Z,49.77
2019-01-04T14:56:35.181Z,55.90
2019-01-04T14:59:06.684Z,50.43
2019-01-04T15:01:37.843Z,50.43
2019-01-04T15:04:10.340Z,50.33
2019-01-04T15:06:43.242Z,50.47
2019-01-04T15:09:14.485Z,55.97
2019-01-04T15:11:45.694Z,59.50
2019-01-04T15:14:16.867Z,59.60
2019-01-04T15:16:49.320Z,57.00
2019-01-04T15:19:30.621Z,56.87
2019-01-04T15:22:01.625Z,54.70
2019-01-04T15:24:31.799Z,56.07
2019-01-04T15:27:02.453Z,57.27
2019-01-04T15:29:33.717Z,51.27
2019-01-04T15:32:05.314Z,57.57
2019-01-04T15:34:37.913Z,54.70
2019-01-04T15:37:08.870Z,62.33
2019-01-04T15:39:41.607Z,48.37
2019-01-04T15:42:11.766Z,59.27
2019-01-04T15:44:42.636Z,59.27
2019-01-04T15:47:12.786Z,64.50
2019-01-04T15:49:43.920Z,61.00
2019-01-04T15:52:14.132Z,68.03
2019-01-04T15:54:44.261Z,63.50
2019-01-04T15:57:14.531Z,66.27
2019-01-04T15:59:44.747Z,66.07
2019-01-04T16:02:16.784Z,64.33
2019-01-04T16:04:49.644Z,66.37
2019-01-04T16:07:20.466Z,69.80
2019-01-04T16:09:51.186Z,69.53
2019-01-04T16:12:22.344Z,72.30
2019-01-04T16:14:53.655Z,59.83
2019-01-04T16:17:24.457Z,71.17
2019-01-04T16:19:56.730Z,81.43
2019-01-04T16:22:28.803Z,78.40
2019-01-04T16:25:01.758Z,73.20
2019-01-04T16:27:32.513Z,72.80
2019-01-04T16:30:03.210Z,73.47
2019-01-04T16:32:34.626Z,72.87
2019-01-04T16:35:06.637Z,74.67
2019-01-04T16:37:36.774Z,76.07
2019-01-04T16:40:08.885Z,88.10
2019-01-04T16:42:39.693Z,81.37
2019-01-04T16:45:10.870Z,81.57
2019-01-04T16:47:42.521Z,79.90
2019-01-04T16:50:13.605Z,87.77
2019-01-04T16:52:44.343Z,87.17
2019-01-04T16:55:14.561Z,79.63
2019-01-04T16:57:49.813Z,83.67
2019-01-04T17:00:20.152Z,68.63
2019-01-04T17:02:50.045Z,81.87
2019-01-04T17:05:20.244Z,81.23
2019-01-04T17:07:50.370Z,76.97
2019-01-04T17:10:21.294Z,76.83
2019-01-04T17:12:52.586Z,78.97
2019-01-04T17:15:23.771Z,79.03
2019-01-04T17:17:56.570Z,75.00
2019-01-04T17:20:30.442Z,73.57
2019-01-04T17:23:01.153Z,81.63
2019-01-04T17:25:31.873Z,82.90
2019-01-04T17:28:02.033Z,79.13
2019-01-04T17:30:33.053Z,83.13
2019-01-04T17:33:03.465Z,81.63
2019-01-04T17:35:34.717Z,79.90
2019-01-04T17:38:07.024Z,79.77
2019-01-04T17:40:37.256Z,82.93
2019-01-04T17:43:08.461Z,82.23
2019-01-04T17:45:41.250Z,85.93
2019-01-04T17:48:11.454Z,86.60
2019-01-04T17:50:42.601Z,86.83
2019-01-04T17:53:14.385Z,83.53
2019-01-04T17:55:45.397Z,97.47
2019-01-04T17:58:17.377Z,94.33
2019-01-04T18:00:48.398Z,83.60
2019-01-04T18:03:19.232Z,86.63
2019-01-04T18:05:49.197Z,82.03
2019-01-04T18:08:19.289Z,67.17
2019-01-04T18:10:50.458Z,92.20
2019-01-04T18:13:21.246Z,86.43
2019-01-04T18:15:53.262Z,81.73
2019-01-04T18:18:23.642Z,86.57
2019-01-04T18:20:55.173Z,90.87
2019-01-04T18:23:27.037Z,88.20
2019-01-04T18:26:00.722Z,70.83
2019-01-04T18:28:31.705Z,88.30
2019-01-04T18:31:03.171Z,93.13
2019-01-04T18:33:37.073Z,92.23
2019-01-04T18:36:08.188Z,99.57
2019-01-04T18:38:37.556Z,94.43
2019-01-04T18:41:11.306Z,96.00
2019-01-04T18:43:41.517Z,91.63
2019-01-04T18:46:13.473Z,94.47
2019-01-04T18:48:45.913Z,93.23
2019-01-04T18:51:16.110Z,88.03
2019-01-04T18:53:46.318Z,99.50
2019-01-04T18:56:17.119Z,92.27
2019-01-04T18:58:47.144Z,67.07
2019-01-04T19:01:17.380Z,87.40
2019-01-04T19:03:48.598Z,90.70
2019-01-04T19:06:20.549Z,89.97
2019-01-04T19:08:51.401Z,93.13
2019-01-04T19:11:23.066Z,86.43
2019-01-04T19:13:54.482Z,84.90
2019-01-04T19:16:24.373Z,68.40
2019-01-04T19:18:54.570Z,86.33
2019-01-04T19:21:24.664Z,90.87
2019-01-04T19:23:58.302Z,88.07
2019-01-04T19:26:30.392Z,88.57
2019-01-04T19:29:02.851Z,89.10
2019-01-04T19:31:33.585Z,88.43
2019-01-04T19:34:03.662Z,67.30
2019-01-04T19:36:34.843Z,90.47
2019-01-04T19:39:06.485Z,85.97
2019-01-04T19:41:36.691Z,91.53
2019-01-04T19:44:08.320Z,88.63
2019-01-04T19:46:40.586Z,85.27
2019-01-04T19:49:13.928Z,83.80
2019-01-04T19:51:45.294Z,84.83
2019-01-04T19:54:15.219Z,88.60
2019-01-04T19:56:45.893Z,85.13
2019-01-04T19:59:18.317Z,85.30
2019-01-04T20:01:50.883Z,87.10
2019-01-04T20:04:20.684Z,88.73
2019-01-04T20:07:16.156Z,79.60
2019-01-04T20:09:58.445Z,91.87
2019-01-04T20:12:45.346Z,90.83
2019-01-04T20:15:25.377Z,91.93
2019-01-04T20:18:14.493Z,87.67
2019-01-04T20:21:06.401Z,90.60
2019-01-04T20:23:42.109Z,93.03
2019-01-04T20:26:15.621Z,94.80
2019-01-04T20:28:50.092Z,83.03
2019-01-04T20:31:38.307Z,89.90
2019-01-04T20:34:15.902Z,80.47
2019-01-04T20:37:04.950Z,86.30
2019-01-04T20:39:36.675Z,81.70
2019-01-04T20:42:12.631Z,78.47
2019-01-04T20:44:58.610Z,88.33
2019-01-04T20:47:31.334Z,83.43
2019-01-04T20:50:19.976Z,81.67
2019-01-04T20:52:57.487Z,86.57
2019-01-04T20:55:35.726Z,79.10
2019-01-04T20:58:18.791Z,83.33
2019-01-04T21:01:07.347Z,77.40
2019-01-04T21:03:53.770Z,84.87
2019-01-04T21:06:28.043Z,85.40
2019-01-04T21:09:00.629Z,89.03
2019-01-04T21:11:36.024Z,81.03
2019-01-04T21:14:22.210Z,83.40
2019-01-04T21:17:11.186Z,93.37
2019-01-04T21:19:43.925Z,68.50
2019-01-04T21:22:34.401Z,87.60
2019-01-04T21:25:22.328Z,84.43
2019-01-04T21:28:06.910Z,86.90
2019-01-04T21:30:38.741Z,92.93
2019-01-04T21:33:23.193Z,84.10
2019-01-04T21:35:56.229Z,77.70
2019-01-04T21:38:30.782Z,79.73
2019-01-04T21:41:05.797Z,82.87
2019-01-04T21:43:53.875Z,95.00
2019-01-04T21:46:26.386Z,81.90
2019-01-04T21:49:14.208Z,83.23
2019-01-04T21:51:51.658Z,80.93
2019-01-04T21:54:24.531Z,79.40
2019-01-04T21:57:13.438Z,86.77
2019-01-04T21:59:55.809Z,73.20
2019-01-04T22:02:28.754Z,75.07
2019-01-04T22:05:03.106Z,74.67
2019-01-04T22:07:44.171Z,78.13
2019-01-04T22:10:34.101Z,82.80
2019-01-04T22:13:26.697Z,72.67
2019-01-04T22:15:58.222Z,75.17
2019-01-04T22:18:36.756Z,61.87
2019-01-04T22:21:12.073Z,70.37
2019-01-04T22:23:47.077Z,79.20
2019-01-04T22:26:27.338Z,78.60
2019-01-04T22:28:58.346Z,82.33
2019-01-04T22:31:35.642Z,80.87
2019-01-04T22:34:24.131Z,101.70
2019-01-04T22:36:55.687Z,85.20
2019-01-04T22:39:30.689Z,82.77
2019-01-04T22:42:12.545Z,80.00
2019-01-04T22:44:56.437Z,80.60
2019-01-04T22:47:41.082Z,72.40
2019-01-04T22:50:28.485Z,78.40
2019-01-04T22:53:17.706Z,77.43
2019-01-04T22:56:01.462Z,84.07
2019-01-04T22:58:38.783Z,81.20
2019-01-04T23:01:14.386Z,82.63
2019-01-04T23:03:52.540Z,72.70
2019-01-04T23:06:23.939Z,78.53
2019-01-04T23:08:58.810Z,72.33
2019-01-04T23:11:48.493Z,73.67
2019-01-04T23:14:22.458Z,70.10
2019-01-04T23:17:02.919Z,64.97
2019-01-04T23:19:53.110Z,70.67
2019-01-04T23:22:33.253Z,69.43
2019-01-04T23:25:23.941Z,65.33
2019-01-04T23:28:03.298Z,65.03
2019-01-04T23:30:42.931Z,66.87
2019-01-04T23:33:14.272Z,57.23
2019-01-04T23:36:05.162Z,64.60
2019-01-04T23:38:47.019Z,62.70
2019-01-04T23:41:34.894Z,71.87
2019-01-04T23:44:24.065Z,66.37
2019-01-04T23:47:12.241Z,111.63
2019-01-04T23:50:00.203Z,77.90
2019-01-04T23:52:34.275Z,83.77
2019-01-04T23:55:06.881Z,96.83
2019-01-04T23:57:56.597Z,88.13
